createdAt,value
2018-06-24T00:01:23.406Z,3.27
2018-06-24T00:03:54.013Z,4.37
2018-06-24T00:06:24.587Z,3.57
2018-06-24T00:08:55.157Z,3.50
2018-06-24T00:11:25.725Z,3.77
2018-06-24T00:13:56.266Z,3.77
2018-06-24T00:16:26.781Z,3.80
2018-06-24T00:18:57.353Z,3.63
2018-06-24T00:21:27.880Z,3.63
2018-06-24T00:23:58.453Z,3.50
2018-06-24T00:26:28.959Z,3.00
2018-06-24T00:28:59.150Z,3.07
2018-06-24T00:31:29.574Z,3.07
2018-06-24T00:34:00.119Z,3.10
2018-06-24T00:36:30.706Z,2.83
2018-06-24T00:39:01.241Z,3.10
2018-06-24T00:41:31.797Z,3.97
2018-06-24T00:44:02.301Z,3.60
2018-06-24T00:46:32.907Z,3.43
2018-06-24T00:49:03.415Z,3.40
2018-06-24T00:51:33.977Z,3.50
2018-06-24T00:54:04.506Z,3.27
2018-06-24T00:56:35.037Z,3.50
2018-06-24T00:59:05.675Z,3.40
2018-06-24T01:01:36.200Z,4.40
2018-06-24T01:04:06.694Z,3.97
2018-06-24T01:06:36.905Z,4.10
2018-06-24T01:09:07.553Z,3.77
2018-06-24T01:11:38.013Z,3.50
2018-06-24T01:14:08.529Z,3.43
2018-06-24T01:16:39.081Z,4.03
2018-06-24T01:19:09.675Z,3.70
2018-06-24T01:21:40.261Z,3.60
2018-06-24T01:24:10.780Z,2.90
2018-06-24T01:26:41.329Z,3.83
2018-06-24T01:29:11.808Z,3.47
2018-06-24T01:31:42.369Z,3.20
2018-06-24T01:34:12.876Z,3.07
2018-06-24T01:36:43.473Z,4.17
2018-06-24T01:39:13.990Z,4.50
2018-06-24T01:41:44.521Z,4.40
2018-06-24T01:44:15.017Z,4.43
2018-06-24T01:46:45.576Z,4.40
2018-06-24T01:49:16.278Z,4.50
2018-06-24T01:51:47.752Z,4.93
2018-06-24T01:54:18.272Z,5.30
2018-06-24T01:56:48.817Z,5.37
2018-06-24T01:59:19.326Z,5.07
2018-06-24T02:01:49.857Z,6.60
2018-06-24T02:04:20.418Z,5.17
2018-06-24T02:06:51.105Z,5.10
2018-06-24T02:09:21.605Z,5.07
2018-06-24T02:11:52.152Z,4.70
2018-06-24T02:14:22.644Z,5.37
2018-06-24T02:16:53.198Z,4.97
2018-06-24T02:19:23.685Z,5.00
2018-06-24T02:21:54.213Z,4.47
2018-06-24T02:24:24.371Z,4.40
2018-06-24T02:26:54.801Z,4.37
2018-06-24T02:29:25.284Z,4.40
2018-06-24T02:31:55.861Z,4.37
2018-06-24T02:34:26.386Z,3.93
2018-06-24T02:36:57.113Z,4.30
2018-06-24T02:39:27.672Z,4.37
2018-06-24T02:41:58.262Z,4.07
2018-06-24T02:44:28.758Z,5.00
2018-06-24T02:46:59.304Z,5.10
2018-06-24T02:49:29.842Z,4.50
2018-06-24T02:52:00.301Z,4.43
2018-06-24T02:54:30.813Z,4.60
2018-06-24T02:57:01.319Z,4.13
2018-06-24T02:59:31.826Z,4.17
2018-06-24T03:02:02.349Z,4.23
2018-06-24T03:04:32.865Z,3.90
2018-06-24T03:07:03.467Z,4.50
2018-06-24T03:09:33.972Z,4.77
2018-06-24T03:12:04.546Z,4.70
2018-06-24T03:14:35.096Z,4.67
2018-06-24T03:17:05.645Z,4.30
2018-06-24T03:19:35.792Z,4.37
2018-06-24T03:22:06.335Z,4.73
2018-06-24T03:24:36.823Z,3.97
2018-06-24T03:27:07.412Z,3.70
2018-06-24T03:29:37.913Z,4.53
2018-06-24T03:32:08.489Z,4.87
2018-06-24T03:34:38.994Z,4.40
2018-06-24T03:37:09.604Z,4.27
2018-06-24T03:39:40.130Z,4.30
2018-06-24T03:42:10.629Z,4.23
2018-06-24T03:44:41.178Z,5.47
2018-06-24T03:47:11.682Z,4.60
2018-06-24T03:49:42.242Z,4.53
2018-06-24T03:52:12.778Z,4.20
2018-06-24T03:54:43.345Z,4.77
2018-06-24T03:57:13.876Z,4.60
2018-06-24T03:59:44.411Z,4.83
2018-06-24T04:02:15.000Z,4.63
2018-06-24T04:04:45.537Z,4.53
2018-06-24T04:07:16.098Z,4.87
2018-06-24T04:09:46.636Z,4.20
2018-06-24T04:12:17.270Z,4.90
2018-06-24T04:14:48.953Z,5.00
2018-06-24T04:17:19.543Z,4.43
2018-06-24T04:19:50.068Z,4.53
2018-06-24T04:22:20.988Z,4.30
2018-06-24T04:24:51.484Z,5.00
2018-06-24T04:27:22.061Z,4.53
2018-06-24T04:29:52.582Z,4.70
2018-06-24T04:32:23.136Z,4.33
2018-06-24T04:34:53.633Z,4.80
2018-06-24T04:37:24.172Z,5.23
2018-06-24T04:39:54.716Z,5.50
2018-06-24T04:42:25.254Z,6.67
2018-06-24T04:44:55.779Z,5.20
2018-06-24T04:47:26.329Z,4.93
2018-06-24T04:49:56.837Z,5.50
2018-06-24T04:52:27.342Z,5.60
2018-06-24T04:54:57.872Z,6.20
2018-06-24T04:57:28.381Z,6.53
2018-06-24T04:59:58.937Z,6.00
2018-06-24T05:02:29.426Z,6.07
2018-06-24T05:04:59.986Z,5.97
2018-06-24T05:07:30.497Z,6.40
2018-06-24T05:10:01.065Z,6.77
2018-06-24T05:12:31.568Z,5.80
2018-06-24T05:15:02.106Z,6.20
2018-06-24T05:17:32.635Z,5.90
2018-06-24T05:20:03.193Z,5.60
2018-06-24T05:22:33.420Z,6.83
2018-06-24T05:25:03.888Z,6.30
2018-06-24T05:27:34.450Z,6.07
2018-06-24T05:30:05.048Z,6.30
2018-06-24T05:32:35.569Z,6.10
2018-06-24T05:35:06.275Z,5.60
2018-06-24T05:37:36.797Z,6.33
2018-06-24T05:40:07.397Z,6.10
2018-06-24T05:42:37.934Z,7.10
2018-06-24T05:45:08.496Z,6.30
2018-06-24T05:47:39.084Z,6.13
2018-06-24T05:50:09.643Z,5.53
2018-06-24T05:52:39.845Z,6.03
2018-06-24T05:55:10.048Z,5.50
2018-06-24T05:57:40.508Z,5.80
2018-06-24T06:00:12.029Z,5.53
2018-06-24T06:02:43.688Z,6.37
2018-06-24T06:05:15.121Z,5.93
2018-06-24T06:07:45.921Z,5.90
2018-06-24T06:10:16.606Z,5.63
2018-06-24T06:12:47.085Z,6.03
2018-06-24T06:15:17.633Z,5.27
2018-06-24T06:17:48.145Z,5.83
2018-06-24T06:20:18.681Z,6.53
2018-06-24T06:22:49.220Z,16.67
2018-06-24T06:25:19.742Z,55.10
2018-06-24T06:27:50.286Z,26.83
2018-06-24T06:30:20.871Z,12.07
2018-06-24T06:32:51.397Z,6.43
2018-06-24T06:35:21.958Z,5.80
2018-06-24T06:37:52.505Z,5.40
2018-06-24T06:40:23.000Z,6.17
2018-06-24T06:42:53.573Z,5.90
2018-06-24T06:45:24.268Z,5.50
2018-06-24T06:47:54.746Z,5.53
2018-06-24T06:50:25.250Z,5.73
2018-06-24T06:52:55.805Z,4.67
2018-06-24T06:55:26.333Z,4.40
2018-06-24T06:57:56.912Z,4.67
2018-06-24T07:00:27.485Z,4.30
2018-06-24T07:02:58.091Z,4.30
2018-06-24T07:05:28.605Z,4.30
2018-06-24T07:07:59.202Z,3.93
2018-06-24T07:10:29.817Z,3.80
2018-06-24T07:13:00.380Z,3.80
2018-06-24T07:15:30.944Z,3.60
2018-06-24T07:18:01.530Z,3.60
2018-06-24T07:20:32.502Z,3.63
2018-06-24T07:23:03.946Z,3.27
2018-06-24T07:25:34.489Z,3.63
2018-06-24T07:28:05.057Z,3.63
2018-06-24T07:30:35.661Z,3.80
2018-06-24T07:33:06.283Z,3.50
2018-06-24T07:35:36.802Z,3.27
2018-06-24T07:38:07.532Z,2.77
2018-06-24T07:40:38.039Z,3.13
2018-06-24T07:43:08.639Z,3.50
2018-06-24T07:45:39.137Z,2.70
2018-06-24T07:48:09.758Z,3.10
2018-06-24T07:50:40.310Z,3.27
2018-06-24T07:53:10.859Z,2.90
2018-06-24T07:55:41.409Z,3.13
2018-06-24T07:58:11.918Z,3.07
2018-06-24T08:00:42.439Z,3.00
2018-06-24T08:03:13.342Z,2.33
2018-06-24T08:05:43.944Z,2.40
2018-06-24T08:08:14.461Z,2.40
2018-06-24T08:10:45.030Z,2.63
2018-06-24T08:13:15.536Z,2.23
2018-06-24T08:15:46.089Z,2.53
2018-06-24T08:18:16.649Z,2.30
2018-06-24T08:20:47.169Z,2.73
2018-06-24T08:23:17.718Z,2.57
2018-06-24T08:25:48.279Z,2.40
2018-06-24T08:28:18.862Z,2.20
2018-06-24T08:30:49.391Z,2.00
2018-06-24T08:33:19.965Z,2.20
2018-06-24T08:35:50.521Z,2.10
2018-06-24T08:38:21.015Z,1.87
2018-06-24T08:40:51.577Z,1.70
2018-06-24T08:43:22.111Z,2.10
2018-06-24T08:45:52.661Z,2.10
2018-06-24T08:48:23.273Z,2.10
2018-06-24T08:50:53.834Z,2.10
2018-06-24T08:53:24.356Z,2.10
2018-06-24T08:55:54.927Z,13.47
2018-06-24T08:58:25.448Z,14.23
2018-06-24T09:00:56.017Z,3.13
2018-06-24T09:03:26.514Z,2.20
2018-06-24T09:05:57.107Z,2.70
2018-06-24T09:08:27.636Z,2.70
2018-06-24T09:10:58.227Z,2.47
2018-06-24T09:13:28.760Z,2.57
2018-06-24T09:15:59.360Z,2.33
2018-06-24T09:18:29.849Z,2.23
2018-06-24T09:21:00.420Z,2.40
2018-06-24T09:23:30.593Z,2.30
2018-06-24T09:26:01.052Z,3.00
2018-06-24T09:28:31.588Z,2.93
2018-06-24T09:31:02.167Z,2.70
2018-06-24T09:33:32.733Z,3.10
2018-06-24T09:36:03.239Z,2.50
2018-06-24T09:38:33.903Z,2.90
2018-06-24T09:41:04.497Z,2.73
2018-06-24T09:43:35.150Z,2.83
2018-06-24T09:46:05.733Z,3.10
2018-06-24T09:48:41.615Z,2.60
2018-06-24T09:51:14.415Z,2.67
2018-06-24T09:53:45.182Z,2.57
2018-06-24T09:56:19.036Z,2.90
2018-06-24T09:58:55.504Z,2.67
2018-06-24T10:01:27.805Z,2.53
2018-06-24T10:03:58.900Z,2.60
2018-06-24T10:06:30.417Z,2.10
2018-06-24T10:09:11.169Z,2.20
2018-06-24T10:11:41.782Z,2.50
2018-06-24T10:14:13.515Z,2.70
2018-06-24T10:16:46.069Z,2.83
2018-06-24T10:19:17.153Z,2.50
2018-06-24T10:21:50.952Z,2.40
2018-06-24T10:24:21.489Z,2.73
2018-06-24T10:26:52.038Z,2.63
2018-06-24T10:29:22.595Z,2.50
2018-06-24T10:31:53.104Z,2.90
2018-06-24T10:34:23.621Z,2.20
2018-06-24T10:36:54.130Z,2.20
2018-06-24T10:39:24.698Z,2.73
2018-06-24T10:41:54.894Z,2.43
2018-06-24T10:44:25.402Z,2.60
2018-06-24T10:46:55.995Z,2.63
2018-06-24T10:49:26.584Z,2.30
2018-06-24T10:51:57.097Z,2.17
2018-06-24T10:54:27.803Z,2.10
2018-06-24T10:56:58.351Z,2.07
2018-06-24T10:59:28.891Z,2.33
2018-06-24T11:01:59.522Z,2.10
2018-06-24T11:04:30.034Z,1.90
2018-06-24T11:07:00.573Z,2.10
2018-06-24T11:09:31.130Z,2.57
2018-06-24T11:12:01.301Z,1.73
2018-06-24T11:14:31.746Z,1.70
2018-06-24T11:17:02.270Z,2.00
2018-06-24T11:19:32.866Z,2.20
2018-06-24T11:22:03.392Z,2.53
2018-06-24T11:24:33.940Z,2.33
2018-06-24T11:27:04.442Z,2.13
2018-06-24T11:29:35.056Z,2.40
2018-06-24T11:32:05.563Z,2.40
2018-06-24T11:34:36.093Z,2.27
2018-06-24T11:37:06.978Z,2.50
2018-06-24T11:39:37.512Z,2.57
2018-06-24T11:42:08.037Z,3.30
2018-06-24T11:44:38.619Z,3.70
2018-06-24T11:47:09.145Z,3.23
2018-06-24T11:49:39.781Z,3.37
2018-06-24T11:52:10.349Z,3.13
2018-06-24T11:54:40.936Z,3.43
2018-06-24T11:57:11.534Z,3.10
2018-06-24T11:59:42.028Z,3.13
2018-06-24T12:02:12.633Z,3.40
2018-06-24T12:04:43.149Z,3.17
2018-06-24T12:07:13.717Z,3.00
2018-06-24T12:09:44.302Z,3.07
2018-06-24T12:12:14.941Z,3.13
2018-06-24T12:14:45.441Z,2.43
2018-06-24T12:17:16.028Z,9.27
2018-06-24T12:19:46.192Z,28.53
2018-06-24T12:22:16.821Z,36.33
2018-06-24T12:24:47.419Z,9.13
2018-06-24T12:27:18.018Z,7.17
2018-06-24T12:29:48.596Z,2.90
2018-06-24T12:32:19.242Z,2.70
2018-06-24T12:34:49.789Z,3.13
2018-06-24T12:37:20.332Z,2.87
2018-06-24T12:39:50.877Z,2.47
2018-06-24T12:42:21.036Z,2.90
2018-06-24T12:44:51.541Z,2.90
2018-06-24T12:47:21.828Z,2.57
2018-06-24T12:49:52.373Z,2.83
2018-06-24T12:52:22.893Z,2.90
2018-06-24T12:54:53.425Z,2.63
2018-06-24T12:57:23.990Z,2.03
2018-06-24T12:59:54.497Z,2.47
2018-06-24T13:02:24.685Z,2.23
2018-06-24T13:04:55.232Z,2.43
2018-06-24T13:07:25.751Z,2.30
2018-06-24T13:09:56.317Z,2.17
2018-06-24T13:12:26.468Z,2.63
2018-06-24T13:14:56.953Z,2.60
2018-06-24T13:17:27.483Z,2.33
2018-06-24T13:19:58.005Z,2.17
2018-06-24T13:22:28.600Z,2.70
2018-06-24T13:24:59.148Z,2.30
2018-06-24T13:27:29.775Z,2.40
2018-06-24T13:30:00.276Z,2.13
2018-06-24T13:32:30.831Z,2.90
2018-06-24T13:35:01.419Z,2.37
2018-06-24T13:37:31.974Z,2.10
2018-06-24T13:40:02.519Z,2.70
2018-06-24T13:42:33.087Z,2.20
2018-06-24T13:45:03.280Z,1.83
2018-06-24T13:47:33.767Z,2.07
2018-06-24T13:50:04.401Z,2.27
2018-06-24T13:52:34.970Z,1.73
2018-06-24T13:55:05.643Z,1.70
2018-06-24T13:57:36.916Z,1.67
2018-06-24T14:00:07.684Z,1.70
2018-06-24T14:02:38.240Z,2.00
2018-06-24T14:05:08.803Z,1.50
2018-06-24T14:07:40.446Z,1.60
2018-06-24T14:10:11.075Z,1.43
2018-06-24T14:12:41.761Z,1.63
2018-06-24T14:15:13.497Z,2.00
2018-06-24T14:17:44.081Z,1.90
2018-06-24T14:20:14.712Z,1.90
2018-06-24T14:22:45.377Z,1.87
2018-06-24T14:25:15.965Z,1.93
2018-06-24T14:27:46.510Z,2.10
2018-06-24T14:30:16.777Z,2.00
2018-06-24T14:32:47.256Z,2.00
2018-06-24T14:35:17.432Z,1.60
2018-06-24T14:37:47.867Z,1.50
2018-06-24T14:40:19.514Z,1.90
2018-06-24T14:42:50.039Z,1.60
2018-06-24T14:45:20.597Z,1.70
2018-06-24T14:47:51.145Z,1.50
2018-06-24T14:50:21.644Z,1.73
2018-06-24T14:52:52.229Z,1.70
2018-06-24T14:55:22.828Z,13.87
2018-06-24T14:57:53.001Z,1.83
2018-06-24T15:00:23.782Z,1.87
2018-06-24T15:02:54.337Z,4.00
2018-06-24T15:05:24.880Z,2.10
2018-06-24T15:07:55.369Z,1.80
2018-06-24T15:10:25.592Z,1.63
2018-06-24T15:12:56.012Z,1.43
2018-06-24T15:15:26.559Z,1.47
2018-06-24T15:17:57.084Z,1.63
2018-06-24T15:20:27.647Z,1.40
2018-06-24T15:22:58.199Z,1.80
2018-06-24T15:25:28.805Z,1.47
2018-06-24T15:27:59.349Z,1.37
2018-06-24T15:30:29.901Z,1.57
2018-06-24T15:33:00.537Z,1.30
2018-06-24T15:35:31.067Z,1.23
2018-06-24T15:38:01.651Z,1.60
2018-06-24T15:40:32.254Z,1.80
2018-06-24T15:43:02.794Z,1.90
2018-06-24T15:45:33.364Z,1.60
2018-06-24T15:48:04.157Z,1.50
2018-06-24T15:50:34.684Z,1.20
2018-06-24T15:53:05.312Z,1.40
2018-06-24T15:55:35.874Z,1.50
2018-06-24T15:58:06.518Z,1.33
2018-06-24T16:00:37.051Z,1.57
2018-06-24T16:03:07.882Z,1.50
2018-06-24T16:05:38.459Z,1.43
2018-06-24T16:08:09.013Z,1.70
2018-06-24T16:10:39.750Z,1.50
2018-06-24T16:13:10.295Z,1.40
2018-06-24T16:15:41.097Z,1.50
2018-06-24T16:18:11.654Z,1.40
2018-06-24T16:20:42.369Z,1.70
2018-06-24T16:23:12.832Z,1.47
2018-06-24T16:25:43.445Z,1.67
2018-06-24T16:28:13.950Z,1.47
2018-06-24T16:30:44.800Z,1.80
2018-06-24T16:33:15.301Z,1.53
2018-06-24T16:35:45.836Z,1.60
2018-06-24T16:38:16.424Z,2.00
2018-06-24T16:40:47.022Z,2.00
2018-06-24T16:43:17.659Z,1.60
2018-06-24T16:45:48.177Z,1.50
2018-06-24T16:48:18.705Z,1.60
2018-06-24T16:50:49.239Z,2.10
2018-06-24T16:53:19.794Z,1.80
2018-06-24T16:55:50.367Z,1.60
2018-06-24T16:58:20.876Z,1.83
2018-06-24T17:00:51.449Z,1.90
2018-06-24T17:03:22.061Z,1.80
2018-06-24T17:05:52.593Z,1.90
2018-06-24T17:08:23.080Z,1.60
2018-06-24T17:10:53.692Z,2.00
2018-06-24T17:13:24.248Z,1.70
2018-06-24T17:15:54.913Z,1.83
2018-06-24T17:18:25.441Z,1.80
2018-06-24T17:20:56.009Z,1.53
2018-06-24T17:23:26.533Z,1.67
2018-06-24T17:25:57.165Z,1.50
2018-06-24T17:28:27.681Z,1.60
2018-06-24T17:30:58.458Z,1.80
2018-06-24T17:33:28.981Z,1.67
2018-06-24T17:35:59.541Z,1.40
2018-06-24T17:38:30.084Z,1.60
2018-06-24T17:41:00.284Z,1.60
2018-06-24T17:43:31.029Z,1.63
2018-06-24T17:46:01.642Z,1.50
2018-06-24T17:48:32.149Z,1.60
2018-06-24T17:51:02.717Z,1.43
2018-06-24T17:53:33.392Z,1.67
2018-06-24T17:56:03.887Z,1.70
2018-06-24T17:58:34.394Z,1.83
2018-06-24T18:01:05.205Z,1.70
2018-06-24T18:03:35.734Z,1.87
2018-06-24T18:06:06.399Z,1.60
2018-06-24T18:08:36.977Z,1.47
2018-06-24T18:11:07.608Z,1.93
2018-06-24T18:13:38.069Z,2.10
2018-06-24T18:16:08.666Z,1.63
2018-06-24T18:18:39.162Z,1.70
2018-06-24T18:21:09.768Z,2.17
2018-06-24T18:23:40.342Z,1.90
2018-06-24T18:26:10.985Z,1.80
2018-06-24T18:28:41.542Z,2.10
2018-06-24T18:31:12.439Z,1.97
2018-06-24T18:33:42.968Z,2.40
2018-06-24T18:36:13.548Z,2.03
2018-06-24T18:38:44.380Z,2.13
2018-06-24T18:41:14.987Z,2.60
2018-06-24T18:43:45.517Z,1.90
2018-06-24T18:46:16.319Z,2.13
2018-06-24T18:48:47.005Z,2.70
2018-06-24T18:51:17.594Z,2.43
2018-06-24T18:53:48.120Z,2.57
2018-06-24T18:56:18.662Z,3.70
2018-06-24T18:58:49.172Z,3.10
2018-06-24T19:01:19.762Z,2.60
2018-06-24T19:03:50.337Z,2.77
2018-06-24T19:06:20.891Z,2.23
2018-06-24T19:08:51.494Z,2.20
2018-06-24T19:11:22.067Z,1.93
2018-06-24T19:13:52.566Z,1.77
2018-06-24T19:16:23.161Z,1.70
2018-06-24T19:18:53.322Z,1.80
2018-06-24T19:21:23.877Z,2.00
2018-06-24T19:23:54.416Z,2.07
2018-06-24T19:26:25.043Z,2.27
2018-06-24T19:28:55.551Z,3.80
2018-06-24T19:31:26.452Z,6.43
2018-06-24T19:33:57.165Z,3.07
2018-06-24T19:36:27.729Z,2.17
2018-06-24T19:38:58.271Z,2.00
2018-06-24T19:41:28.884Z,2.03
2018-06-24T19:43:59.412Z,2.70
2018-06-24T19:46:30.848Z,2.60
2018-06-24T19:49:01.393Z,1.90
2018-06-24T19:51:32.065Z,2.50
2018-06-24T19:54:02.613Z,2.00
2018-06-24T19:56:33.141Z,2.30
2018-06-24T19:59:03.668Z,2.33
2018-06-24T20:01:34.477Z,2.00
2018-06-24T20:04:05.017Z,2.00
2018-06-24T20:06:35.573Z,1.80
2018-06-24T20:09:09.772Z,2.40
2018-06-24T20:11:40.336Z,2.23
2018-06-24T20:14:10.826Z,2.30
2018-06-24T20:16:41.500Z,2.00
2018-06-24T20:19:11.989Z,2.17
2018-06-24T20:21:42.497Z,2.90
2018-06-24T20:24:13.008Z,3.10
2018-06-24T20:26:43.573Z,2.70
2018-06-24T20:29:14.089Z,2.87
2018-06-24T20:31:44.695Z,2.47
2018-06-24T20:34:15.221Z,2.60
2018-06-24T20:36:45.789Z,2.90
2018-06-24T20:39:16.281Z,3.23
2018-06-24T20:41:46.829Z,2.67
2018-06-24T20:44:17.381Z,2.60
2018-06-24T20:46:47.866Z,2.63
2018-06-24T20:49:18.833Z,2.50
2018-06-24T20:51:49.404Z,2.73
2018-06-24T20:54:19.957Z,2.73
2018-06-24T20:56:50.483Z,2.50
2018-06-24T20:59:21.100Z,2.63
2018-06-24T21:01:51.642Z,2.10
2018-06-24T21:04:22.222Z,2.53
2018-06-24T21:06:52.736Z,2.20
2018-06-24T21:09:23.327Z,2.77
2018-06-24T21:11:53.901Z,2.17
2018-06-24T21:14:24.437Z,2.40
2018-06-24T21:16:55.029Z,2.73
2018-06-24T21:19:25.833Z,2.47
2018-06-24T21:21:56.361Z,2.80
2018-06-24T21:24:33.990Z,2.40
2018-06-24T21:27:04.592Z,2.77
2018-06-24T21:29:35.159Z,2.80
2018-06-24T21:32:05.970Z,2.40
2018-06-24T21:34:37.332Z,2.83
2018-06-24T21:37:07.945Z,2.67
2018-06-24T21:39:38.528Z,2.80
2018-06-24T21:42:09.126Z,2.50
2018-06-24T21:44:40.188Z,2.67
2018-06-24T21:47:10.928Z,2.67
2018-06-24T21:49:41.945Z,2.20
2018-06-24T21:52:13.340Z,2.53
2018-06-24T21:54:45.038Z,2.50
2018-06-24T21:57:15.669Z,2.70
2018-06-24T21:59:47.951Z,2.50
2018-06-24T22:02:18.960Z,2.70
2018-06-24T22:04:49.697Z,2.90
2018-06-24T22:07:20.253Z,2.80
2018-06-24T22:09:50.824Z,2.33
2018-06-24T22:12:21.514Z,2.93
2018-06-24T22:14:52.180Z,2.30
2018-06-24T22:17:22.881Z,3.00
2018-06-24T22:19:53.867Z,2.43
2018-06-24T22:22:24.547Z,2.50
2018-06-24T22:24:55.179Z,2.43
2018-06-24T22:27:25.896Z,2.63
2018-06-24T22:29:56.478Z,2.70
2018-06-24T22:32:27.118Z,2.77
2018-06-24T22:34:57.799Z,2.50
2018-06-24T22:37:28.516Z,2.40
2018-06-24T22:39:59.100Z,2.47
2018-06-24T22:42:30.748Z,2.23
2018-06-24T22:45:01.386Z,2.47
2018-06-24T22:47:31.930Z,2.20
2018-06-24T22:50:02.504Z,2.37
2018-06-24T22:52:33.054Z,2.53
2018-06-24T22:55:03.593Z,3.00
2018-06-24T22:57:34.140Z,3.03
2018-06-24T23:00:18.662Z,3.10
2018-06-24T23:02:49.481Z,3.30
2018-06-24T23:05:20.196Z,3.17
2018-06-24T23:07:50.791Z,3.00
2018-06-24T23:10:21.341Z,2.77
2018-06-24T23:12:51.882Z,3.00
2018-06-24T23:15:22.497Z,2.63
2018-06-24T23:17:53.030Z,2.70
2018-06-24T23:20:23.582Z,4.60
2018-06-24T23:22:54.116Z,3.67
2018-06-24T23:25:24.615Z,3.00
2018-06-24T23:27:55.169Z,2.70
2018-06-24T23:30:25.668Z,2.10
2018-06-24T23:32:56.208Z,2.73
2018-06-24T23:35:26.348Z,3.30
2018-06-24T23:37:56.792Z,2.63
2018-06-24T23:40:27.289Z,2.73
2018-06-24T23:42:57.829Z,2.80
2018-06-24T23:45:28.406Z,2.60
2018-06-24T23:47:58.882Z,2.40
2018-06-24T23:50:29.406Z,2.60
2018-06-24T23:52:59.894Z,3.20
2018-06-24T23:55:30.549Z,2.53
2018-06-24T23:58:01.320Z,2.53
